createdAt,value
2023-08-17T00:02:28.699Z,1.42
2023-08-17T00:05:02.777Z,1.08
2023-08-17T00:07:36.180Z,1.05
2023-08-17T00:10:09.927Z,1.02
2023-08-17T00:12:42.807Z,1.17
2023-08-17T00:15:15.717Z,1.73
2023-08-17T00:17:48.901Z,0.98
2023-08-17T00:20:26.172Z,1.38
2023-08-17T00:22:58.984Z,1.20
2023-08-17T00:25:33.077Z,1.35
2023-08-17T00:28:07.224Z,0.70
2023-08-17T00:30:40.103Z,2.20
2023-08-17T00:35:48.664Z,1.02
2023-08-17T00:38:21.722Z,1.17
2023-08-17T00:40:55.660Z,0.75
2023-08-17T00:43:28.783Z,1.15
2023-08-17T00:46:02.300Z,1.10
2023-08-17T00:53:43.407Z,1.00
2023-08-17T00:56:16.623Z,1.00
2023-08-17T00:58:51.143Z,1.20
2023-08-17T01:07:27.348Z,1.00
2023-08-17T01:10:01.439Z,0.93
2023-08-17T01:12:40.077Z,1.00
2023-08-17T01:15:17.867Z,1.02
2023-08-17T01:17:57.020Z,0.95
2023-08-17T01:20:34.523Z,0.80
2023-08-17T01:23:09.475Z,0.90
2023-08-17T01:25:42.352Z,1.13
2023-08-17T01:30:54.343Z,1.00
2023-08-17T01:33:33.373Z,0.98
2023-08-17T01:36:22.141Z,1.10
2023-08-17T01:38:58.586Z,1.00
2023-08-17T01:41:32.744Z,0.90
2023-08-17T01:44:07.005Z,1.10
2023-08-17T01:46:40.383Z,1.02
2023-08-17T01:49:13.397Z,1.38
2023-08-17T02:03:58.009Z,1.02
2023-08-17T02:06:31.000Z,0.82
2023-08-17T02:14:45.717Z,1.20
2023-08-17T02:17:20.049Z,1.10
2023-08-17T02:19:57.948Z,0.80
2023-08-17T02:22:30.826Z,0.90
2023-08-17T02:33:45.547Z,1.17
2023-08-17T02:38:53.363Z,1.00
2023-08-17T02:41:26.197Z,1.02
2023-08-17T02:43:59.601Z,0.95
2023-08-17T02:46:32.623Z,1.63
2023-08-17T02:49:06.362Z,1.23
2023-08-17T02:51:41.367Z,0.90
2023-08-17T02:54:14.184Z,1.00
2023-08-17T02:57:08.638Z,0.80
2023-08-17T02:59:41.806Z,1.23
2023-08-17T03:02:15.165Z,1.52
2023-08-17T03:04:47.912Z,1.30
2023-08-17T03:07:22.148Z,1.17
2023-08-17T03:09:54.934Z,0.93
2023-08-17T03:12:27.704Z,1.40
2023-08-17T03:15:00.818Z,1.10
2023-08-17T03:17:35.814Z,0.80
2023-08-17T03:20:10.471Z,1.27
2023-08-17T03:22:44.925Z,1.05
2023-08-17T03:25:19.958Z,1.20
2023-08-17T03:27:54.301Z,0.90
2023-08-17T03:30:28.019Z,0.90
2023-08-17T03:33:00.945Z,1.20
2023-08-17T03:38:07.935Z,1.07
2023-08-17T03:40:40.989Z,1.17
2023-08-17T03:45:46.878Z,1.30
2023-08-17T03:50:54.173Z,1.15
2023-08-17T03:53:28.431Z,1.00
2023-08-17T03:56:01.371Z,1.33
2023-08-17T04:01:08.846Z,1.50
2023-08-17T04:08:50.580Z,1.10
2023-08-17T04:11:23.391Z,0.93
2023-08-17T04:26:37.087Z,0.80
2023-08-17T04:38:42.236Z,1.10
2023-08-17T04:41:15.248Z,0.82
2023-08-17T04:43:50.661Z,1.40
2023-08-17T04:46:23.830Z,1.27
2023-08-17T04:51:29.787Z,0.80
2023-08-17T04:54:03.651Z,0.98
2023-08-17T04:56:36.746Z,1.15
2023-08-17T04:59:11.791Z,1.23
2023-08-17T05:01:45.602Z,1.10
2023-08-17T05:04:18.657Z,1.00
2023-08-17T05:06:51.551Z,1.17
2023-08-17T05:11:57.124Z,1.20
2023-08-17T05:14:31.313Z,0.93
2023-08-17T05:17:04.315Z,1.17
2023-08-17T05:22:12.992Z,1.58
2023-08-17T05:24:45.859Z,1.17
2023-08-17T05:29:54.532Z,1.30
2023-08-17T05:32:27.508Z,1.17
2023-08-17T05:35:01.128Z,1.40
2023-08-17T05:37:34.048Z,1.50
2023-08-17T05:42:43.893Z,1.10
2023-08-17T05:45:21.990Z,1.10
2023-08-17T05:47:55.113Z,1.00
2023-08-17T05:50:28.196Z,1.05
2023-08-17T05:53:01.246Z,0.90
2023-08-17T05:55:34.131Z,1.30
2023-08-17T05:58:06.912Z,1.05
2023-08-17T06:00:41.190Z,1.40
2023-08-17T06:03:14.409Z,1.20
2023-08-17T06:05:47.447Z,1.00
2023-08-17T06:10:53.372Z,1.20
2023-08-17T06:16:01.045Z,1.08
2023-08-17T06:18:33.954Z,1.67
2023-08-17T06:23:39.818Z,1.10
2023-08-17T06:26:13.890Z,1.30
2023-08-17T06:28:46.717Z,1.50
2023-08-17T06:31:20.851Z,1.27
2023-08-17T06:33:53.833Z,1.17
2023-08-17T06:38:59.351Z,1.27
2023-08-17T06:41:32.227Z,0.90
2023-08-17T06:44:05.469Z,2.28
2023-08-17T06:46:39.584Z,1.10
2023-08-17T06:49:13.516Z,1.08
2023-08-17T06:51:46.364Z,1.13
2023-08-17T06:54:19.361Z,1.30
2023-08-17T06:59:24.998Z,1.40
2023-08-17T07:01:59.560Z,1.20
2023-08-17T07:04:32.400Z,1.30
2023-08-17T07:07:05.312Z,0.88
2023-08-17T07:12:10.675Z,1.40
2023-08-17T07:14:43.631Z,1.20
2023-08-17T07:20:07.677Z,1.38
2023-08-17T07:22:43.331Z,1.77
2023-08-17T07:25:16.364Z,1.50
2023-08-17T07:27:49.245Z,1.30
2023-08-17T07:32:56.543Z,1.55
2023-08-17T07:35:29.495Z,1.48
2023-08-17T07:40:44.005Z,1.23
2023-08-17T07:43:16.865Z,1.17
2023-08-17T07:48:30.794Z,1.23
2023-08-17T07:51:03.746Z,1.23
2023-08-17T07:56:09.915Z,1.02
2023-08-17T07:58:45.386Z,1.25
2023-08-17T08:01:19.359Z,1.10
2023-08-17T08:03:53.671Z,1.60
2023-08-17T08:06:26.581Z,1.35
2023-08-17T08:11:32.701Z,1.23
2023-08-17T08:14:06.064Z,1.33
2023-08-17T08:16:38.926Z,1.27
2023-08-17T08:19:13.106Z,1.08
2023-08-17T08:21:45.887Z,1.05
2023-08-17T08:24:35.192Z,1.98
2023-08-17T08:27:10.841Z,1.17
2023-08-17T08:29:44.920Z,1.00
2023-08-17T08:32:17.780Z,1.73
2023-08-17T08:34:51.945Z,1.33
2023-08-17T08:37:24.909Z,1.10
2023-08-17T08:39:57.943Z,1.38
2023-08-17T08:45:03.673Z,1.10
2023-08-17T08:47:39.067Z,1.00
2023-08-17T08:50:20.041Z,1.20
2023-08-17T08:53:00.801Z,0.85
2023-08-17T08:55:40.053Z,0.90
2023-08-17T08:58:19.220Z,1.00
2023-08-17T09:00:52.141Z,1.23
2023-08-17T09:06:00.838Z,0.93
2023-08-17T09:08:33.579Z,1.20
2023-08-17T09:11:06.517Z,1.65
2023-08-17T09:13:39.426Z,1.00
2023-08-17T09:16:12.380Z,1.10
2023-08-17T09:18:45.642Z,1.05
2023-08-17T09:21:24.961Z,1.38
2023-08-17T09:23:59.554Z,1.50
2023-08-17T09:26:34.274Z,1.55
2023-08-17T09:29:20.180Z,0.95
2023-08-17T09:31:53.295Z,1.15
2023-08-17T09:37:04.729Z,1.40
2023-08-17T09:39:37.578Z,1.17
2023-08-17T09:44:44.868Z,1.35
2023-08-17T09:49:51.664Z,1.40
2023-08-17T09:52:26.043Z,1.25
2023-08-17T09:55:08.126Z,1.20
2023-08-17T09:57:43.594Z,1.05
2023-08-17T10:00:16.970Z,1.40
2023-08-17T10:02:52.162Z,1.10
2023-08-17T10:05:25.932Z,1.33
2023-08-17T10:08:02.924Z,1.27
2023-08-17T10:10:40.720Z,0.90
2023-08-17T10:13:18.358Z,0.93
2023-08-17T10:16:02.243Z,1.13
2023-08-17T10:18:43.623Z,1.63
2023-08-17T10:21:28.778Z,1.15
2023-08-17T10:24:05.106Z,1.27
2023-08-17T10:26:37.896Z,1.27
2023-08-17T10:31:51.119Z,1.20
2023-08-17T10:34:25.911Z,1.20
2023-08-17T10:37:01.231Z,1.30
2023-08-17T10:39:40.894Z,1.00
2023-08-17T10:42:13.727Z,1.40
2023-08-17T10:44:47.629Z,1.00
2023-08-17T10:47:22.418Z,1.40
2023-08-17T10:49:59.549Z,1.17
2023-08-17T10:52:33.944Z,1.45
2023-08-17T10:55:09.981Z,1.63
2023-08-17T10:57:44.664Z,1.60
2023-08-17T11:00:25.352Z,1.58
2023-08-17T11:03:01.029Z,1.13
2023-08-17T11:05:42.896Z,1.10
2023-08-17T11:08:23.178Z,1.25
2023-08-17T11:11:01.697Z,1.30
2023-08-17T11:13:36.306Z,1.30
2023-08-17T11:16:11.135Z,1.08
2023-08-17T11:18:45.398Z,1.00
2023-08-17T11:21:20.003Z,1.25
2023-08-17T11:23:53.515Z,1.10
2023-08-17T11:26:28.974Z,1.05
2023-08-17T11:29:02.312Z,1.65
2023-08-17T11:31:35.343Z,1.25
2023-08-17T11:34:08.205Z,1.08
2023-08-17T11:36:41.221Z,1.27
2023-08-17T11:39:15.209Z,1.05
2023-08-17T11:41:53.414Z,1.33
2023-08-17T11:44:27.149Z,1.42
2023-08-17T11:46:59.989Z,1.17
2023-08-17T11:49:38.551Z,1.15
2023-08-17T11:52:11.988Z,1.33
2023-08-17T11:54:44.767Z,1.30
2023-08-17T11:57:19.002Z,0.90
2023-08-17T11:59:55.160Z,1.33
2023-08-17T12:02:30.440Z,1.10
2023-08-17T12:05:07.584Z,1.30
2023-08-17T12:07:40.531Z,1.48
2023-08-17T12:10:13.905Z,1.33
2023-08-17T12:12:48.840Z,1.23
2023-08-17T12:15:21.724Z,1.25
2023-08-17T12:17:54.815Z,1.10
2023-08-17T12:20:27.625Z,1.05
2023-08-17T12:23:01.582Z,0.90
2023-08-17T12:25:34.403Z,1.20
2023-08-17T12:28:08.792Z,1.50
2023-08-17T12:30:41.819Z,1.55
2023-08-17T12:33:14.588Z,1.10
2023-08-17T12:35:47.435Z,1.40
2023-08-17T12:38:20.552Z,1.10
2023-08-17T12:40:53.521Z,1.40
2023-08-17T12:43:28.136Z,1.63
2023-08-17T12:46:00.967Z,1.42
2023-08-17T12:48:36.126Z,1.30
2023-08-17T12:51:09.261Z,1.42
2023-08-17T12:53:43.079Z,1.05
2023-08-17T12:56:15.888Z,1.52
2023-08-17T12:58:50.112Z,1.20
2023-08-17T13:01:23.932Z,1.30
2023-08-17T13:03:58.832Z,1.00
2023-08-17T13:06:43.686Z,1.55
2023-08-17T13:09:21.931Z,1.13
2023-08-17T13:11:54.691Z,1.20
2023-08-17T13:14:28.871Z,1.27
2023-08-17T13:17:01.655Z,1.42
2023-08-17T13:19:34.396Z,1.50
2023-08-17T13:22:07.200Z,1.48
2023-08-17T13:24:41.173Z,1.13
2023-08-17T13:27:14.059Z,1.38
2023-08-17T13:29:50.800Z,1.15
2023-08-17T13:32:24.006Z,0.95
2023-08-17T13:34:56.950Z,1.50
2023-08-17T13:37:29.686Z,1.38
2023-08-17T13:40:02.408Z,1.17
2023-08-17T13:42:35.152Z,1.65
2023-08-17T13:45:10.523Z,1.17
2023-08-17T13:47:43.322Z,1.60
2023-08-17T13:50:16.229Z,1.33
2023-08-17T13:52:49.059Z,1.60
2023-08-17T13:55:22.141Z,1.30
2023-08-17T13:57:56.444Z,1.30
2023-08-17T14:00:30.844Z,1.30
2023-08-17T14:03:04.190Z,1.50
2023-08-17T14:05:37.273Z,1.00
2023-08-17T14:08:11.962Z,1.10
2023-08-17T14:10:44.867Z,1.50
2023-08-17T14:13:17.694Z,1.17
2023-08-17T14:15:52.063Z,1.65
2023-08-17T14:18:24.833Z,1.27
2023-08-17T14:20:58.627Z,0.95
2023-08-17T14:23:31.378Z,1.25
2023-08-17T14:26:04.262Z,1.33
2023-08-17T14:28:44.425Z,1.27
2023-08-17T14:31:19.513Z,1.10
2023-08-17T14:33:53.240Z,0.98
2023-08-17T14:36:26.235Z,1.27
2023-08-17T14:38:59.017Z,1.45
2023-08-17T14:44:07.407Z,1.30
2023-08-17T14:46:43.240Z,1.90
2023-08-17T14:49:16.135Z,1.20
2023-08-17T14:51:49.181Z,1.45
2023-08-17T14:54:22.113Z,1.30
2023-08-17T14:56:57.773Z,1.02
2023-08-17T14:59:30.737Z,1.35
2023-08-17T15:02:04.998Z,1.23
2023-08-17T15:04:38.975Z,1.52
2023-08-17T15:07:12.322Z,1.90
2023-08-17T15:09:45.245Z,1.50
2023-08-17T15:12:18.065Z,1.52
2023-08-17T15:17:25.383Z,1.20
2023-08-17T15:20:00.050Z,1.80
2023-08-17T15:22:32.995Z,1.50
2023-08-17T15:25:06.418Z,1.52
2023-08-17T15:27:39.250Z,1.88
2023-08-17T15:30:12.788Z,1.33
2023-08-17T15:32:46.966Z,1.58
2023-08-17T15:35:19.925Z,1.48
2023-08-17T15:37:52.849Z,1.48
2023-08-17T15:40:25.899Z,1.55
2023-08-17T15:42:58.662Z,1.70
2023-08-17T15:48:05.702Z,1.95
2023-08-17T15:50:38.464Z,1.33
2023-08-17T15:53:11.241Z,1.88
2023-08-17T15:55:44.054Z,2.08
2023-08-17T16:00:49.462Z,1.70
2023-08-17T16:03:24.381Z,1.60
2023-08-17T16:05:57.241Z,2.10
2023-08-17T16:11:20.743Z,2.00
2023-08-17T16:16:26.288Z,1.42
2023-08-17T16:19:04.452Z,2.08
2023-08-17T16:21:38.740Z,1.77
2023-08-17T16:24:11.753Z,2.03
2023-08-17T16:26:44.737Z,2.47
2023-08-17T16:29:17.460Z,1.48
2023-08-17T16:34:34.759Z,1.90
2023-08-17T16:37:07.694Z,2.50
2023-08-17T16:39:40.489Z,2.03
2023-08-17T16:44:46.249Z,2.00
2023-08-17T16:47:21.554Z,2.08
2023-08-17T16:49:56.230Z,1.77
2023-08-17T16:52:30.198Z,1.98
2023-08-17T16:57:35.935Z,1.60
2023-08-17T17:00:10.259Z,1.67
2023-08-17T17:02:43.147Z,1.63
2023-08-17T17:05:17.298Z,1.52
2023-08-17T17:07:50.176Z,1.60
2023-08-17T17:10:23.006Z,1.75
2023-08-17T17:15:28.804Z,1.58
2023-08-17T17:18:01.775Z,1.65
2023-08-17T17:20:36.066Z,1.65
2023-08-17T17:23:08.876Z,1.80
2023-08-17T17:28:14.716Z,2.00
2023-08-17T17:33:20.571Z,1.92
2023-08-17T17:35:54.617Z,2.13
2023-08-17T17:38:27.303Z,1.88
2023-08-17T17:41:00.096Z,2.00
2023-08-17T17:46:05.428Z,1.73
2023-08-17T17:51:12.292Z,2.30
2023-08-17T17:53:45.248Z,2.05
2023-08-17T17:56:18.183Z,2.20
2023-08-17T17:58:51.161Z,1.50
2023-08-17T18:01:23.991Z,2.00
2023-08-17T18:06:36.248Z,1.88
2023-08-17T18:09:09.995Z,1.80
2023-08-17T18:11:43.347Z,2.40
2023-08-17T18:14:16.510Z,1.80
2023-08-17T18:16:49.421Z,2.60
2023-08-17T18:19:22.293Z,2.10
2023-08-17T18:24:29.360Z,2.00
2023-08-17T18:27:02.165Z,2.05
2023-08-17T18:34:40.931Z,1.70
2023-08-17T18:39:47.721Z,2.25
2023-08-17T18:44:53.059Z,1.95
2023-08-17T18:47:26.028Z,2.33
2023-08-17T18:49:58.969Z,1.80
2023-08-17T18:52:33.057Z,2.00
2023-08-17T18:55:12.022Z,1.70
2023-08-17T18:57:45.192Z,2.10
2023-08-17T19:00:18.386Z,1.77
2023-08-17T19:02:51.520Z,2.40
2023-08-17T19:05:24.532Z,2.00
2023-08-17T19:10:31.330Z,2.25
2023-08-17T19:13:04.146Z,2.10
2023-08-17T19:18:10.472Z,1.95
2023-08-17T19:20:43.512Z,2.10
2023-08-17T19:23:17.709Z,2.20
2023-08-17T19:25:50.466Z,2.25
2023-08-17T19:30:55.991Z,2.47
2023-08-17T19:36:01.733Z,2.20
2023-08-17T19:38:35.750Z,2.30
2023-08-17T19:41:08.510Z,1.90
2023-08-17T19:43:41.246Z,2.25
2023-08-17T19:48:47.634Z,2.13
2023-08-17T19:51:20.753Z,2.30
2023-08-17T19:53:54.905Z,2.13
2023-08-17T19:56:28.251Z,2.17
2023-08-17T19:59:01.776Z,2.10
2023-08-17T20:01:37.062Z,2.15
2023-08-17T20:04:12.021Z,2.05
2023-08-17T20:06:49.041Z,1.85
2023-08-17T20:09:23.412Z,1.98
2023-08-17T20:11:56.331Z,2.20
2023-08-17T20:17:02.079Z,2.65
2023-08-17T20:22:08.996Z,2.50
2023-08-17T20:24:44.307Z,2.17
2023-08-17T20:27:17.414Z,2.33
2023-08-17T20:29:51.756Z,2.40
2023-08-17T20:32:24.749Z,2.60
2023-08-17T20:34:57.769Z,2.22
2023-08-17T20:37:30.820Z,2.33
2023-08-17T20:40:06.305Z,2.45
2023-08-17T20:42:39.317Z,2.60
2023-08-17T20:45:12.589Z,2.25
2023-08-17T20:47:45.797Z,3.20
2023-08-17T20:50:19.976Z,2.97
2023-08-17T20:52:54.683Z,2.50
2023-08-17T20:55:29.162Z,3.15
2023-08-17T20:58:02.123Z,2.75
2023-08-17T21:00:36.784Z,2.75
2023-08-17T21:03:10.399Z,2.80
2023-08-17T21:05:43.372Z,2.83
2023-08-17T21:08:16.300Z,3.58
2023-08-17T21:10:51.030Z,2.42
2023-08-17T21:13:24.147Z,3.08
2023-08-17T21:16:04.389Z,2.70
2023-08-17T21:18:37.765Z,2.40
2023-08-17T21:21:10.655Z,2.92
2023-08-17T21:26:19.341Z,2.50
2023-08-17T21:28:52.767Z,3.10
2023-08-17T21:31:25.705Z,3.00
2023-08-17T21:33:58.680Z,4.07
2023-08-17T21:42:54.176Z,3.08
2023-08-17T21:45:27.436Z,2.90
2023-08-17T21:48:00.272Z,3.10
2023-08-17T21:53:06.520Z,3.05
2023-08-17T21:55:39.279Z,2.63
2023-08-17T21:58:13.712Z,2.78
2023-08-17T22:00:47.695Z,3.42
2023-08-17T22:03:21.076Z,2.83
2023-08-17T22:06:03.822Z,2.90
2023-08-17T22:08:37.618Z,3.08
2023-08-17T22:11:23.416Z,2.60
2023-08-17T22:20:07.842Z,3.05
2023-08-17T22:22:41.290Z,3.10
2023-08-17T22:25:16.819Z,2.80
2023-08-17T22:27:50.471Z,2.97
2023-08-17T22:30:23.254Z,3.42
2023-08-17T22:32:56.111Z,3.47
2023-08-17T22:35:30.750Z,3.72
2023-08-17T22:38:03.672Z,3.50
2023-08-17T22:40:36.417Z,3.58
2023-08-17T22:45:41.781Z,3.37
2023-08-17T22:48:14.631Z,4.10
2023-08-17T22:53:22.064Z,3.05
2023-08-17T22:58:27.649Z,4.70
2023-08-17T23:01:00.441Z,4.50
2023-08-17T23:06:28.075Z,3.72
2023-08-17T23:09:01.118Z,3.90
2023-08-17T23:14:06.644Z,4.00
2023-08-17T23:19:12.235Z,4.05
2023-08-17T23:24:19.000Z,4.03
2023-08-17T23:26:52.124Z,4.43
2023-08-17T23:29:24.905Z,3.70
2023-08-17T23:32:00.257Z,3.92
2023-08-17T23:34:39.079Z,4.00
2023-08-17T23:39:46.215Z,4.68
2023-08-17T23:42:19.112Z,3.88
2023-08-17T23:47:26.224Z,3.95
2023-08-17T23:49:59.114Z,4.70
2023-08-17T23:52:33.392Z,5.22
2023-08-17T23:55:07.224Z,3.67
2023-08-17T23:57:40.075Z,3.97
